De Haan, Belgium
Current Conditions -  °F | °C
As of 6:20 AM on Monday 20 Oct 2014 (Local Time) from EBOS Reporting Station
Scattered Clouds Scattered Clouds  
Wind Chill: 14°   Ceiling: Unl
Heat Index: 14°   Visibility: 6mi
Dew Point: 11°   Wind: 18mph
Humidity: 82%   Direction: 260°W
Pressure: 30.03"   Gusts: NA
Location:  51.27°N, 3.03°E
Report Text: EBOS 200420Z 26016KT 9999 FEW018 SCT030 14/11 Q1017 NOSIG
Loading
Personal Weather Stations






























Interactive Weather Map
Tropical Storm Tracking
New forecast layout! Learn more

10-Day Weather Forecast

Advertisements
Track Severe Weather on mobile